Time;durP1;ratioP1;P1;durP2;ratioP2;P2;SDS_P1;SDS_P2;PMS_P1;PMS_P2;Temp;Humidity;BMP_temperature;BMP_pressure;BME280_temperature;BME280_humidity;BME280_pressure;Samples;Min_cycle;Max_cycle;Signal;HPM_P1;HPM_P2
2022/09/11 00:00:29;;;;;;;0.70;0.20;;;;;;;16.53;100.00;100553.19;5029721;28;20072;-60
2022/09/11 00:02:54;;;;;;;1.10;0.10;;;;;;;16.49;100.00;100546.66;5030188;28;20029;-61
2022/09/11 00:05:19;;;;;;;3.08;0.10;;;;;;;16.42;100.00;100543.94;5029762;28;20507;-65
2022/09/11 00:07:46;;;;;;;1.42;0.25;;;;;;;16.36;100.00;100543.81;5028547;28;20029;-61
2022/09/11 00:10:11;;;;;;;2.25;0.10;;;;;;;16.31;100.00;100538.28;5030104;28;20036;-62
2022/09/11 00:12:37;;;;;;;2.20;0.17;;;;;;;16.27;100.00;100541.28;5029086;28;20077;-61
2022/09/11 00:15:03;;;;;;;1.45;0.15;;;;;;;16.26;100.00;100542.28;5029026;28;20028;-64
2022/09/11 00:17:28;;;;;;;3.60;0.10;;;;;;;16.29;100.00;100541.09;5027692;28;20416;-66
2022/09/11 00:19:54;;;;;;;1.63;0.10;;;;;;;16.36;100.00;100539.38;5030060;28;20565;-65
2022/09/11 00:22:19;;;;;;;2.03;0.10;;;;;;;16.36;100.00;100541.19;5029888;28;20029;-66
2022/09/11 00:24:46;;;;;;;0.10;0.10;;;;;;;16.37;100.00;100532.31;5026900;28;20057;-64
2022/09/11 00:27:11;;;;;;;1.60;0.10;;;;;;;16.37;100.00;100529.69;5027163;28;20484;-65
2022/09/11 00:29:37;;;;;;;1.45;0.10;;;;;;;16.36;100.00;100526.25;5027810;28;20030;-65
2022/09/11 00:32:03;;;;;;;1.70;0.10;;;;;;;16.31;100.00;100531.22;5010982;28;20087;-64
2022/09/11 00:34:28;;;;;;;1.13;0.10;;;;;;;16.23;100.00;100526.84;5028975;28;20481;-64
2022/09/11 00:36:54;;;;;;;1.92;0.47;;;;;;;16.14;100.00;100522.66;5027508;28;20044;-63
2022/09/11 00:39:20;;;;;;;3.88;0.10;;;;;;;16.06;100.00;100522.78;5029334;28;20121;-66
2022/09/11 00:41:45;;;;;;;0.95;0.10;;;;;;;16.05;100.00;100518.50;5010548;28;20017;-63
2022/09/11 00:44:11;;;;;;;0.73;0.10;;;;;;;16.04;100.00;100511.63;5028925;28;20025;-63
2022/09/11 00:46:45;;;;;;;0.47;0.10;;;;;;;16.02;100.00;100513.59;5027402;28;20077;-61
2022/09/11 00:49:20;;;;;;;3.72;0.38;;;;;;;16.03;100.00;100511.78;5028439;28;20368;-60
2022/09/11 00:52:01;;;;;;;0.40;0.10;;;;;;;16.06;100.00;100522.78;5029393;28;20072;-62
2022/09/11 00:54:31;;;;;;;4.03;0.10;;;;;;;16.11;100.00;100525.66;5028844;28;20118;-65
2022/09/11 00:57:01;;;;;;;0.25;0.05;;;;;;;16.15;100.00;100526.94;5027633;28;20083;-63
2022/09/11 00:59:31;;;;;;;0.30;0.10;;;;;;;16.09;100.00;100519.75;5026733;28;20037;-60
2022/09/11 01:01:56;;;;;;;0.38;0.10;;;;;;;16.10;100.00;100524.00;5028780;28;20029;-62
2022/09/11 01:04:22;;;;;;;4.88;0.10;;;;;;;16.07;100.00;100526.22;5028901;28;20025;-66
2022/09/11 01:06:55;;;;;;;1.30;0.10;;;;;;;16.08;100.00;100526.00;5029104;28;20452;-64
2022/09/11 01:09:21;;;;;;;4.07;0.08;;;;;;;16.11;100.00;100523.03;5025930;28;20033;-65
2022/09/11 01:12:09;;;;;;;0.40;0.10;;;;;;;16.21;100.00;100517.50;5028385;28;20036;-64
2022/09/11 01:14:59;;;;;;;0.20;0.00;;;;;;;16.26;100.00;100523.88;5009211;28;20038;-61
2022/09/11 01:17:46;;;;;;;0.40;0.05;;;;;;;16.27;100.00;100525.50;5012126;28;20079;-62
2022/09/11 01:20:29;;;;;;;0.35;0.00;;;;;;;16.27;100.00;100530.75;5027096;28;20048;-61
2022/09/11 01:23:27;;;;;;;0.50;0.15;;;;;;;16.26;100.00;100536.19;5028020;28;20037;-63
2022/09/11 01:26:11;;;;;;;0.40;0.10;;;;;;;16.22;100.00;100525.22;4991269;28;20402;-62
2022/09/11 01:28:47;;;;;;;2.97;0.10;;;;;;;16.25;100.00;100527.50;5020357;28;20083;-62
2022/09/11 01:31:19;;;;;;;1.23;0.10;;;;;;;16.29;100.00;100524.50;5010766;28;20457;-63
2022/09/11 01:33:58;;;;;;;0.25;0.10;;;;;;;16.30;100.00;100524.31;5027188;28;20041;-60
2022/09/11 01:36:34;;;;;;;2.67;0.10;;;;;;;16.31;100.00;100525.97;5028170;28;20112;-64
2022/09/11 01:39:04;;;;;;;4.68;0.30;;;;;;;16.33;100.00;100531.84;5009564;28;20030;-63
2022/09/11 01:41:52;;;;;;;2.63;0.10;;;;;;;16.33;100.00;100518.72;5010233;28;20493;-63
2022/09/11 01:44:24;;;;;;;2.30;0.10;;;;;;;16.44;100.00;100514.81;5027401;28;20041;-64
2022/09/11 01:46:52;;;;;;;0.98;0.10;;;;;;;16.48;100.00;100521.34;5027639;28;20403;-63
2022/09/11 01:49:24;;;;;;;1.88;0.10;;;;;;;16.47;100.00;100530.25;5028300;28;20121;-66
2022/09/11 01:51:55;;;;;;;2.40;0.05;;;;;;;16.46;100.00;100531.22;5028551;28;20379;-63
2022/09/11 01:54:25;;;;;;;0.40;0.00;;;;;;;16.45;100.00;100533.03;5026396;28;20505;-62
2022/09/11 01:57:00;;;;;;;0.38;0.00;;;;;;;16.47;100.00;100524.97;5028025;28;20052;-59
2022/09/11 01:59:34;;;;;;;1.83;0.10;;;;;;;16.43;100.00;100526.34;5027102;28;20037;-61
2022/09/11 02:02:05;;;;;;;0.15;0.00;;;;;;;16.43;100.00;100513.19;5028236;28;20084;-62
2022/09/11 02:04:59;;;;;;;0.80;0.05;;;;;;;16.45;100.00;100514.63;5027450;28;20056;-61
2022/09/11 02:07:33;;;;;;;0.20;0.00;;;;;;;16.46;100.00;100516.28;5026250;28;20452;-62
2022/09/11 02:10:16;;;;;;;2.47;0.10;;;;;;;16.50;100.00;100516.72;5028375;28;20071;-63
2022/09/11 02:12:50;;;;;;;3.63;0.00;;;;;;;16.48;100.00;100519.53;5026660;28;20025;-61
2022/09/11 02:15:16;;;;;;;1.02;0.00;;;;;;;16.63;100.00;100523.97;5027209;28;20449;-62
2022/09/11 02:18:00;;;;;;;2.92;0.00;;;;;;;16.63;100.00;100539.75;5026887;28;20049;-63
2022/09/11 02:20:27;;;;;;;0.98;0.00;;;;;;;16.57;100.00;100533.38;5013722;28;20033;-65
2022/09/11 02:22:53;;;;;;;3.60;0.10;;;;;;;16.51;100.00;100526.25;5013995;28;20036;-62
2022/09/11 02:25:19;;;;;;;0.10;0.00;;;;;;;16.49;100.00;100523.81;5031410;28;20045;-64
2022/09/11 02:27:44;;;;;;;0.30;0.25;;;;;;;16.47;100.00;100525.78;5032120;28;20053;-65
2022/09/11 02:30:11;;;;;;;0.40;0.10;;;;;;;16.45;100.00;100519.91;5030684;28;20033;-62
2022/09/11 02:32:40;;;;;;;0.20;0.00;;;;;;;16.44;100.00;100513.00;5031559;28;20053;-63
2022/09/11 02:35:06;;;;;;;2.20;0.45;;;;;;;16.44;100.00;100502.50;5031420;28;20108;-64
2022/09/11 02:37:50;;;;;;;3.75;0.10;;;;;;;16.43;100.00;100497.41;5031766;28;20438;-62
2022/09/11 02:43:09;;;;;;;1.20;0.10;;;;;;;16.47;100.00;100493.41;5233597;22;20065;-63
2022/09/11 02:45:59;;;;;;;0.30;0.00;;;;;;;16.46;100.00;100497.88;5031632;28;20464;-65
2022/09/11 02:48:52;;;;;;;0.57;0.10;;;;;;;16.44;100.00;100491.16;5031633;28;20466;-65
2022/09/11 02:51:36;;;;;;;3.22;0.10;;;;;;;16.40;100.00;100492.50;5031860;28;20052;-61
2022/09/11 02:54:33;;;;;;;1.38;0.10;;;;;;;16.42;100.00;100506.28;5031590;28;20406;-60
2022/09/11 02:57:04;;;;;;;1.52;0.00;;;;;;;16.42;100.00;100495.78;5031844;28;20045;-65
2022/09/11 02:59:39;;;;;;;0.60;0.10;;;;;;;16.35;100.00;100505.38;5013473;28;20361;-65
2022/09/11 03:02:11;;;;;;;4.03;0.10;;;;;;;16.27;100.00;100499.22;5031619;28;20148;-65
2022/09/11 03:04:37;;;;;;;2.28;0.10;;;;;;;16.29;100.00;100491.13;5013303;28;20040;-63
2022/09/11 03:07:03;;;;;;;1.25;0.00;;;;;;;16.34;100.00;100499.31;5013368;28;20383;-63
2022/09/11 03:09:28;;;;;;;0.43;0.00;;;;;;;16.33;100.00;100500.31;5031175;28;20033;-62
2022/09/11 03:11:54;;;;;;;0.55;0.00;;;;;;;16.37;100.00;100498.13;5030214;28;20030;-65
2022/09/11 03:14:20;;;;;;;0.17;0.00;;;;;;;16.42;100.00;100483.44;5031287;28;20075;-62
2022/09/11 03:16:45;;;;;;;2.75;0.10;;;;;;;16.35;100.00;100477.28;5031126;28;20036;-63
2022/09/11 03:19:11;;;;;;;2.22;0.10;;;;;;;16.33;100.00;100468.75;5030939;28;20029;-64
2022/09/11 03:21:37;;;;;;;3.00;0.00;;;;;;;16.34;100.00;100465.13;5031304;28;20032;-66
2022/09/11 03:24:04;;;;;;;0.30;0.00;;;;;;;16.37;99.69;100467.41;5012797;28;20033;-63
2022/09/11 03:26:31;;;;;;;0.65;0.25;;;;;;;16.41;100.00;100473.91;5030901;28;20029;-60
2022/09/11 03:28:57;;;;;;;0.10;0.00;;;;;;;16.41;100.00;100478.38;5013152;28;20034;-64
2022/09/11 03:31:22;;;;;;;0.38;0.00;;;;;;;16.36;100.00;100470.22;5030708;28;20104;-62
2022/09/11 03:33:48;;;;;;;0.32;0.10;;;;;;;16.27;100.00;100487.88;5030629;28;20045;-63
2022/09/11 03:36:14;;;;;;;1.80;0.10;;;;;;;16.22;100.00;100487.59;5031183;28;20041;-59
2022/09/11 03:38:39;;;;;;;0.85;0.00;;;;;;;16.14;100.00;100491.13;5030846;28;20497;-62
2022/09/11 03:41:04;;;;;;;1.55;0.00;;;;;;;16.07;100.00;100495.47;5030629;28;20029;-64
2022/09/11 03:43:31;;;;;;;0.55;0.03;;;;;;;16.00;100.00;100502.47;5030325;28;20053;-62
2022/09/11 03:45:56;;;;;;;1.30;0.10;;;;;;;15.97;100.00;100505.44;5030479;28;20064;-63
2022/09/11 03:48:24;;;;;;;3.85;0.10;;;;;;;15.97;100.00;100508.06;5030767;28;20048;-64
2022/09/11 03:50:49;;;;;;;6.30;0.00;;;;;;;15.95;100.00;100499.53;5012275;28;20051;-63
2022/09/11 03:53:15;;;;;;;0.20;0.00;;;;;;;15.95;100.00;100509.25;5012136;28;20470;-64
2022/09/11 03:55:41;;;;;;;1.02;0.10;;;;;;;16.02;100.00;100508.34;5030417;28;20025;-63
2022/09/11 03:58:08;;;;;;;3.58;0.10;;;;;;;16.09;100.00;100516.31;5030454;28;20120;-63
2022/09/11 04:00:35;;;;;;;1.95;0.10;;;;;;;16.11;100.00;100515.13;5012300;28;20055;-62
2022/09/11 04:03:01;;;;;;;1.38;0.10;;;;;;;16.08;100.00;100520.75;5029978;28;20052;-63
2022/09/11 04:05:27;;;;;;;0.93;0.10;;;;;;;16.12;100.00;100522.03;5030087;28;20033;-64
2022/09/11 04:07:53;;;;;;;1.38;0.20;;;;;;;16.12;100.00;100518.59;5030037;28;20037;-62
2022/09/11 04:10:20;;;;;;;1.30;0.00;;;;;;;16.16;99.28;100511.97;5030021;28;20033;-62
2022/09/11 04:12:48;;;;;;;2.45;0.00;;;;;;;16.18;98.01;100516.06;5030226;28;20099;-62
2022/09/11 04:15:14;;;;;;;0.17;0.00;;;;;;;16.23;98.04;100508.44;5030310;28;20033;-63
2022/09/11 04:17:40;;;;;;;1.08;0.00;;;;;;;16.22;97.83;100509.44;5029928;28;20611;-60
2022/09/11 04:20:06;;;;;;;0.13;0.00;;;;;;;16.24;97.63;100510.09;5011752;28;20044;-63
2022/09/11 04:22:32;;;;;;;0.43;0.00;;;;;;;16.24;96.91;100506.63;5029686;28;20075;-64
2022/09/11 04:24:59;;;;;;;0.65;0.30;;;;;;;16.24;96.34;100510.09;5029971;28;20029;-61
2022/09/11 04:27:26;;;;;;;0.85;0.03;;;;;;;16.25;95.82;100510.91;5012212;28;20389;-61
2022/09/11 04:29:51;;;;;;;2.38;0.08;;;;;;;16.23;96.11;100505.00;5011748;28;20401;-64
2022/09/11 04:32:17;;;;;;;0.40;0.10;;;;;;;16.21;96.10;100509.63;5029940;28;20030;-61
2022/09/11 04:34:42;;;;;;;0.68;0.00;;;;;;;16.19;95.74;100509.81;5029712;28;20029;-65
2022/09/11 04:37:07;;;;;;;0.90;0.10;;;;;;;16.17;95.99;100509.16;5029475;28;20108;-61
2022/09/11 04:39:34;;;;;;;0.40;0.00;;;;;;;16.13;95.83;100509.69;5029440;28;20025;-60
2022/09/11 04:42:01;;;;;;;0.10;0.00;;;;;;;16.05;96.13;100505.38;5010889;28;20053;-63
2022/09/11 04:44:31;;;;;;;0.20;0.00;;;;;;;16.04;96.27;100508.19;5029325;28;20025;-65
2022/09/11 04:46:57;;;;;;;0.80;0.00;;;;;;;15.98;96.59;100508.88;5011755;28;20026;-63
2022/09/11 04:49:22;;;;;;;0.38;0.05;;;;;;;15.92;97.24;100515.66;5029387;28;20098;-65
2022/09/11 04:51:48;;;;;;;3.22;0.40;;;;;;;15.81;96.73;100514.28;5029506;28;20030;-66
2022/09/11 04:54:15;;;;;;;1.08;0.20;;;;;;;15.74;97.93;100517.78;5029222;28;20484;-64
2022/09/11 04:56:40;;;;;;;1.15;0.00;;;;;;;15.70;98.35;100519.13;5029108;28;20030;-63
2022/09/11 04:59:12;;;;;;;2.17;0.05;;;;;;;15.66;98.82;100516.03;5028858;28;20075;-64
2022/09/11 05:01:38;;;;;;;0.20;0.00;;;;;;;15.67;98.54;100522.09;5011185;28;20450;-65
2022/09/11 05:04:05;;;;;;;1.95;0.05;;;;;;;15.65;98.65;100529.34;5029129;28;20113;-62
2022/09/11 05:06:31;;;;;;;1.88;0.00;;;;;;;15.65;98.43;100522.28;5028900;28;20030;-64
2022/09/11 05:09:03;;;;;;;2.17;0.10;;;;;;;15.62;98.44;100524.44;5028804;28;20111;-65
2022/09/11 05:11:29;;;;;;;2.00;0.00;;;;;;;15.59;97.99;100529.06;5010930;28;20037;-63
2022/09/11 05:13:58;;;;;;;0.35;0.00;;;;;;;15.65;97.99;100530.16;5028464;28;20099;-61
2022/09/11 05:16:24;;;;;;;2.10;0.00;;;;;;;15.72;97.40;100532.91;5028625;28;20124;-61
2022/09/11 05:18:51;;;;;;;1.88;0.00;;;;;;;15.77;97.43;100533.19;5029003;28;20366;-65
2022/09/11 05:21:17;;;;;;;1.00;0.00;;;;;;;15.78;96.44;100530.38;5010843;28;20041;-59
2022/09/11 05:23:46;;;;;;;3.03;0.30;;;;;;;15.81;96.06;100534.47;5029201;28;20032;-64
2022/09/11 05:26:24;;;;;;;1.38;0.10;;;;;;;15.82;94.74;100531.66;5028483;28;20032;-63
2022/09/11 05:28:58;;;;;;;1.48;0.10;;;;;;;15.84;95.08;100537.56;5028916;28;20384;-62
2022/09/11 05:31:24;;;;;;;2.35;0.00;;;;;;;15.93;95.20;100538.31;5029032;28;20392;-63
2022/09/11 05:33:54;;;;;;;2.33;0.10;;;;;;;15.98;95.33;100529.91;5028568;28;20633;-65
2022/09/11 05:36:20;;;;;;;1.90;0.10;;;;;;;15.97;95.17;100539.59;5010380;28;20030;-66
2022/09/11 05:38:46;;;;;;;2.22;0.63;;;;;;;15.96;94.88;100539.78;5028547;28;20032;-64
2022/09/11 05:41:12;;;;;;;3.17;0.10;;;;;;;15.93;94.88;100539.13;5028454;28;20065;-62
2022/09/11 05:43:39;;;;;;;0.98;0.00;;;;;;;15.97;94.52;100544.84;5028310;28;20073;-63
2022/09/11 05:46:06;;;;;;;0.10;0.00;;;;;;;15.97;93.36;100544.03;5028587;28;20041;-66
2022/09/11 05:48:33;;;;;;;0.30;0.10;;;;;;;15.98;93.46;100546.50;5028261;28;20037;-63
2022/09/11 05:51:01;;;;;;;6.80;0.10;;;;;;;16.00;93.69;100552.38;5028306;28;20036;-64
2022/09/11 05:53:27;;;;;;;1.00;0.10;;;;;;;16.04;93.78;100552.84;5027016;28;20094;-64
2022/09/11 05:55:56;;;;;;;2.85;0.00;;;;;;;16.10;94.03;100552.94;5028147;28;20472;-63
2022/09/11 05:58:21;;;;;;;0.70;0.00;;;;;;;16.15;93.41;100558.47;5028315;28;20037;-62
2022/09/11 06:00:47;;;;;;;0.55;0.00;;;;;;;16.20;93.03;100556.13;5027975;28;20362;-62
2022/09/11 06:03:14;;;;;;;0.20;0.00;;;;;;;16.26;92.77;100560.66;5028229;28;20134;-63
2022/09/11 06:05:40;;;;;;;2.08;0.00;;;;;;;16.30;92.29;100560.31;5028164;28;20477;-62
2022/09/11 06:08:07;;;;;;;0.77;0.00;;;;;;;16.39;92.90;100564.50;5027775;28;20040;-62
2022/09/11 06:10:34;;;;;;;3.05;0.10;;;;;;;16.43;93.77;100560.53;5027655;28;20111;-64
2022/09/11 06:12:59;;;;;;;1.30;0.10;;;;;;;16.46;94.87;100560.97;5028084;28;20192;-64
2022/09/11 06:15:24;;;;;;;1.40;0.40;;;;;;;16.47;95.67;100565.25;5027859;28;20033;-62
2022/09/11 06:17:50;;;;;;;0.40;0.00;;;;;;;16.53;94.82;100567.16;5028289;28;20029;-62
2022/09/11 06:20:16;;;;;;;0.75;0.00;;;;;;;16.72;92.94;100565.00;5027658;28;20040;-64
2022/09/11 06:22:41;;;;;;;2.65;0.10;;;;;;;16.85;91.65;100565.16;5028431;28;20037;-61
2022/09/11 06:25:08;;;;;;;0.15;0.00;;;;;;;16.98;90.16;100570.63;5027855;28;20022;-61
2022/09/11 06:27:33;;;;;;;2.30;0.10;;;;;;;17.09;88.93;100567.47;4993741;28;20395;-62
2022/09/11 06:29:59;;;;;;;1.70;0.00;;;;;;;17.23;88.20;100573.72;5027516;28;20029;-63
2022/09/11 06:32:24;;;;;;;1.65;0.00;;;;;;;17.34;88.06;100572.44;5010192;28;20033;-62
2022/09/11 06:34:50;;;;;;;3.05;0.10;;;;;;;17.36;87.80;100568.63;5027857;28;20033;-62
2022/09/11 06:37:15;;;;;;;2.22;0.10;;;;;;;17.42;87.90;100575.78;5027817;28;20032;-63
2022/09/11 06:39:41;;;;;;;1.35;0.00;;;;;;;17.42;87.62;100573.16;5027656;28;20053;-63
2022/09/11 06:42:07;;;;;;;0.68;0.10;;;;;;;17.47;88.33;100580.50;5027405;28;20050;-64
2022/09/11 06:44:32;;;;;;;0.10;0.00;;;;;;;17.48;86.92;100579.50;5027787;28;20130;-61
2022/09/11 06:46:58;;;;;;;0.10;0.00;;;;;;;17.50;87.70;100580.91;5027598;28;20040;-63
2022/09/11 06:49:24;;;;;;;0.30;0.00;;;;;;;17.57;87.59;100580.97;5027469;28;20037;-64
2022/09/11 06:51:51;;;;;;;1.92;0.00;;;;;;;17.67;86.81;100584.16;5009156;28;20032;-62
2022/09/11 06:54:16;;;;;;;2.17;0.00;;;;;;;17.77;86.69;100583.84;5009528;28;20120;-64
2022/09/11 06:56:42;;;;;;;0.28;0.08;;;;;;;17.87;86.96;100576.44;5027625;28;20465;-64
2022/09/11 06:59:07;;;;;;;2.15;0.25;;;;;;;18.00;86.78;100581.81;5027444;28;20029;-65
2022/09/11 07:01:33;;;;;;;1.65;0.00;;;;;;;18.13;85.80;100583.75;5024497;28;20034;-61
2022/09/11 07:03:58;;;;;;;0.10;0.00;;;;;;;18.24;86.27;100584.06;5026924;28;20559;-63
2022/09/11 07:06:27;;;;;;;0.20;0.05;;;;;;;18.36;83.67;100592.25;5030526;28;20017;-64
2022/09/11 07:08:59;;;;;;;0.45;0.08;;;;;;;18.45;84.19;100590.25;5029921;28;20025;-62
2022/09/11 07:11:26;;;;;;;4.47;0.10;;;;;;;18.57;84.62;100594.00;5027630;28;20127;-61
2022/09/11 07:13:52;;;;;;;0.25;0.00;;;;;;;18.69;83.97;100596.97;5031132;28;20025;-61
2022/09/11 07:16:18;;;;;;;0.20;0.00;;;;;;;18.72;83.55;100594.75;5017239;28;20158;-63
2022/09/11 07:18:45;;;;;;;0.10;0.00;;;;;;;18.83;84.60;100601.31;5030797;28;20108;-61
2022/09/11 07:21:15;;;;;;;1.30;0.00;;;;;;;18.92;82.86;100596.66;5030840;28;20124;-61
2022/09/11 07:23:42;;;;;;;0.17;0.00;;;;;;;18.96;80.93;100597.91;5015248;28;20029;-63
2022/09/11 07:26:12;;;;;;;0.20;0.00;;;;;;;19.02;79.54;100589.19;5015315;28;20057;-62
2022/09/11 07:28:38;;;;;;;0.80;0.00;;;;;;;19.17;80.50;100585.41;5027847;28;20114;-63
2022/09/11 07:31:09;;;;;;;2.97;0.10;;;;;;;19.29;81.34;100593.59;5031582;28;20362;-61
2022/09/11 07:33:37;;;;;;;0.80;0.05;;;;;;;19.38;80.53;100597.66;5026853;28;20046;-62
2022/09/11 07:36:15;;;;;;;1.33;0.00;;;;;;;19.49;78.47;100593.63;5030925;28;20037;-62
2022/09/11 07:38:42;;;;;;;3.88;0.10;;;;;;;19.62;79.10;100598.97;5030635;28;20678;-61
2022/09/11 07:41:09;;;;;;;0.75;0.00;;;;;;;19.67;78.81;100604.47;5030851;28;20120;-62
2022/09/11 07:43:40;;;;;;;0.38;0.00;;;;;;;19.65;75.85;100613.63;5029465;28;20426;-61
2022/09/11 07:46:08;;;;;;;1.65;0.00;;;;;;;19.70;78.22;100619.94;5030479;28;20029;-62
2022/09/11 07:48:34;;;;;;;0.20;0.00;;;;;;;19.81;79.00;100618.53;5030837;28;20029;-62
2022/09/11 07:51:03;;;;;;;0.45;0.00;;;;;;;19.93;77.91;100624.84;5030845;28;20021;-63
2022/09/11 07:53:56;;;;;;;0.10;0.00;;;;;;;20.03;75.84;100619.97;5029420;28;20086;-62
2022/09/11 07:56:24;;;;;;;0.20;0.00;;;;;;;20.17;78.63;100613.69;5010239;28;20046;-63
2022/09/11 07:58:51;;;;;;;0.20;0.00;;;;;;;20.31;77.50;100617.16;5028795;28;20033;-63
2022/09/11 08:01:19;;;;;;;2.85;0.00;;;;;;;20.44;76.37;100618.97;5030080;28;20033;-62
2022/09/11 08:03:45;;;;;;;0.57;0.00;;;;;;;20.59;74.31;100627.53;5028737;28;20083;-62
2022/09/11 08:06:20;;;;;;;5.53;0.00;;;;;;;20.69;70.13;100632.41;5012161;28;20036;-63
2022/09/11 08:08:46;;;;;;;1.80;0.00;;;;;;;20.83;73.42;100633.97;5030169;28;20037;-62
2022/09/11 08:11:14;;;;;;;2.08;0.00;;;;;;;20.92;74.21;100630.09;5012466;28;20089;-62
2022/09/11 08:13:40;;;;;;;1.38;0.00;;;;;;;20.93;74.36;100630.91;5029201;28;20074;-62
2022/09/11 08:16:06;;;;;;;0.85;0.00;;;;;;;20.98;74.40;100633.75;5029316;28;20029;-62
2022/09/11 08:18:34;;;;;;;1.20;0.00;;;;;;;21.03;74.55;100640.03;5029702;28;20018;-62
2022/09/11 08:21:05;;;;;;;0.77;0.00;;;;;;;21.11;73.10;100639.00;5028066;28;20499;-63
2022/09/11 08:23:31;;;;;;;0.70;0.00;;;;;;;21.12;73.02;100635.34;5027640;28;20124;-62
2022/09/11 08:26:10;;;;;;;0.10;0.00;;;;;;;21.20;69.54;100633.25;5030081;28;20120;-62
2022/09/11 08:28:37;;;;;;;1.35;0.10;;;;;;;21.26;72.21;100634.28;5028441;28;20037;-62
2022/09/11 08:31:04;;;;;;;1.60;0.05;;;;;;;21.27;72.44;100635.91;5030079;28;20037;-62
2022/09/11 08:33:32;;;;;;;0.30;0.10;;;;;;;21.26;72.61;100641.44;5021314;28;20025;-62
2022/09/11 08:35:59;;;;;;;0.55;0.00;;;;;;;21.34;71.72;100644.63;5011383;28;20131;-62
2022/09/11 08:38:24;;;;;;;0.45;0.00;;;;;;;21.29;71.08;100643.63;5028467;28;20451;-62
2022/09/11 08:40:50;;;;;;;0.35;0.00;;;;;;;21.34;71.00;100647.28;5021307;28;20038;-62
2022/09/11 08:43:26;;;;;;;0.15;0.00;;;;;;;21.31;68.60;100646.88;5021337;28;20462;-62
2022/09/11 08:45:57;;;;;;;1.48;0.20;;;;;;;21.46;68.16;100648.25;5029101;28;20026;-62
2022/09/11 08:48:34;;;;;;;0.00;0.00;;;;;;;21.46;67.64;100650.91;5019882;28;20065;-62
2022/09/11 08:51:00;;;;;;;0.63;0.00;;;;;;;21.43;69.84;100647.88;5005610;28;20083;-62
2022/09/11 08:53:29;;;;;;;0.60;0.00;;;;;;;21.50;69.13;100648.66;5021068;28;20025;-62
2022/09/11 08:56:15;;;;;;;0.10;0.00;;;;;;;21.52;68.36;100650.06;5025520;28;20045;-62
2022/09/11 08:59:18;;;;;;;0.10;0.00;;;;;;;21.46;67.16;100640.31;5015796;28;20075;-62
2022/09/11 09:02:24;;;;;;;0.10;0.00;;;;;;;21.60;62.50;100627.00;5020709;28;20033;-63
2022/09/11 09:05:33;;;;;;;0.00;0.00;;;;;;;21.46;64.57;100626.25;5019807;28;20075;-62
2022/09/11 09:08:09;;;;;;;1.85;0.05;;;;;;;21.31;65.68;100631.81;4982510;28;20045;-62
2022/09/11 09:11:13;;;;;;;0.17;0.00;;;;;;;21.23;65.52;100631.25;5028605;28;20038;-62
2022/09/11 09:13:57;;;;;;;0.00;0.00;;;;;;;21.17;67.17;100636.34;5024927;28;20041;-62
2022/09/11 09:16:41;;;;;;;0.55;0.00;;;;;;;21.15;68.74;100632.25;5024028;28;20384;-62
2022/09/11 09:19:19;;;;;;;0.10;0.00;;;;;;;21.14;65.90;100630.63;5025650;28;20083;-62
2022/09/11 09:22:09;;;;;;;2.22;0.00;;;;;;;21.21;59.36;100631.47;4998605;28;20048;-62
2022/09/11 09:24:49;;;;;;;0.08;0.00;;;;;;;21.28;62.83;100629.56;5010410;28;20393;-64
2022/09/11 09:27:29;;;;;;;0.05;0.00;;;;;;;21.27;65.38;100632.47;5008814;28;20524;-62
2022/09/11 09:30:00;;;;;;;0.40;0.00;;;;;;;21.16;65.93;100621.47;5026497;28;20039;-62
2022/09/11 09:32:32;;;;;;;0.05;0.00;;;;;;;21.10;66.57;100622.28;5028211;28;20504;-62
2022/09/11 09:35:04;;;;;;;0.50;0.00;;;;;;;21.16;68.08;100620.66;5026890;28;20036;-62
2022/09/11 09:37:29;;;;;;;0.00;0.00;;;;;;;21.12;68.60;100617.59;5028694;28;20444;-62
2022/09/11 09:39:55;;;;;;;0.00;0.00;;;;;;;21.14;68.34;100617.41;5027198;28;20029;-63
2022/09/11 09:42:39;;;;;;;0.47;0.00;;;;;;;21.39;59.91;100618.31;5023320;28;20125;-62
2022/09/11 09:45:53;;;;;;;0.10;0.00;;;;;;;21.45;61.58;100614.00;5020190;28;20037;-62
2022/09/11 09:48:19;;;;;;;0.00;0.00;;;;;;;21.35;64.71;100618.94;4992647;28;20053;-62
2022/09/11 09:50:46;;;;;;;0.10;0.00;;;;;;;21.24;65.32;100620.44;5026970;28;20369;-62
2022/09/11 09:53:16;;;;;;;0.57;0.00;;;;;;;21.24;65.25;100619.63;5027391;28;20406;-62
2022/09/11 09:55:43;;;;;;;0.32;0.22;;;;;;;21.21;64.56;100618.22;5022773;28;20037;-62
2022/09/11 09:58:09;;;;;;;0.10;0.00;;;;;;;21.23;64.79;100613.53;5027366;28;20373;-63
2022/09/11 10:00:36;;;;;;;0.08;0.00;;;;;;;21.35;66.36;100618.94;5015721;28;20052;-62
2022/09/11 10:03:19;;;;;;;0.00;0.00;;;;;;;21.33;64.27;100608.56;5028477;28;20056;-63
2022/09/11 10:05:47;;;;;;;0.00;0.00;;;;;;;21.34;64.10;100604.88;5021200;28;20036;-62
2022/09/11 10:08:36;;;;;;;0.10;0.00;;;;;;;21.38;59.92;100613.22;5026889;28;20385;-62
2022/09/11 10:11:05;;;;;;;0.00;0.00;;;;;;;21.96;56.43;100597.16;5027451;28;20036;-63
2022/09/11 10:13:41;;;;;;;0.03;0.00;;;;;;;22.07;53.61;100597.31;5026167;28;20032;-63
2022/09/11 10:16:22;;;;;;;0.00;0.00;;;;;;;22.09;53.50;100597.91;5022122;28;20510;-63
2022/09/11 10:18:47;;;;;;;0.28;0.00;;;;;;;22.24;53.51;100602.88;5009176;28;20033;-62
2022/09/11 10:21:34;;;;;;;0.55;0.00;;;;;;;22.33;53.02;100593.59;5026989;28;20535;-62
2022/09/11 10:24:02;;;;;;;0.20;0.00;;;;;;;22.07;55.38;100594.66;4990640;28;20030;-62
2022/09/11 10:26:37;;;;;;;0.20;0.00;;;;;;;22.16;54.21;100590.72;5024936;28;20029;-62
2022/09/11 10:29:18;;;;;;;0.80;0.00;;;;;;;22.29;51.89;100591.59;5025155;28;20048;-63
2022/09/11 10:31:55;;;;;;;0.10;0.00;;;;;;;22.35;49.43;100586.22;5010002;28;20040;-63
2022/09/11 10:34:23;;;;;;;0.15;0.00;;;;;;;22.33;53.27;100585.63;5012606;28;20057;-63
2022/09/11 10:37:01;;;;;;;1.10;0.00;;;;;;;22.31;50.21;100581.56;5026370;28;20049;-62
2022/09/11 10:39:32;;;;;;;0.10;0.00;;;;;;;22.73;48.22;100578.06;5008717;28;20037;-62
2022/09/11 10:42:08;;;;;;;0.00;0.00;;;;;;;22.67;51.43;100581.63;5024477;28;20037;-62
2022/09/11 10:44:35;;;;;;;0.28;0.00;;;;;;;22.36;52.08;100582.53;5010216;28;20042;-62
2022/09/11 10:47:02;;;;;;;0.28;0.00;;;;;;;22.31;53.65;100582.38;5009334;28;20358;-62
2022/09/11 10:49:28;;;;;;;0.05;0.00;;;;;;;22.37;53.36;100588.66;5015516;28;20107;-63
2022/09/11 10:52:09;;;;;;;0.00;0.00;;;;;;;22.49;49.30;100584.28;5031400;28;20068;-62
2022/09/11 10:54:58;;;;;;;1.08;0.00;;;;;;;22.49;53.06;100584.28;5026864;28;20029;-62
2022/09/11 10:57:44;;;;;;;0.10;0.00;;;;;;;22.39;53.99;100576.81;5031331;28;20041;-62
2022/09/11 11:00:20;;;;;;;0.00;0.00;;;;;;;22.25;55.94;100580.59;5029282;28;20088;-63
2022/09/11 11:02:53;;;;;;;0.75;0.00;;;;;;;22.21;56.29;100573.31;5017175;28;20034;-63
2022/09/11 11:05:30;;;;;;;0.00;0.00;;;;;;;22.24;54.95;100578.16;5026997;28;20075;-62
2022/09/11 11:08:14;;;;;;;0.10;0.00;;;;;;;22.17;52.12;100571.09;5031139;28;20515;-61
2022/09/11 11:10:43;;;;;;;0.08;0.00;;;;;;;22.28;55.03;100564.25;5027856;28;20034;-63
2022/09/11 11:13:44;;;;;;;1.15;0.00;;;;;;;22.35;52.07;100559.69;5022009;28;20109;-61
2022/09/11 11:16:24;;;;;;;0.40;0.00;;;;;;;22.39;54.33;100565.38;5005469;28;20328;-62
2022/09/11 11:19:16;;;;;;;1.95;0.00;;;;;;;22.38;56.20;100553.94;5029715;28;20085;-61
2022/09/11 11:21:57;;;;;;;0.20;0.00;;;;;;;22.44;55.90;100565.53;5031358;28;20435;-61
2022/09/11 11:24:41;;;;;;;0.00;0.00;;;;;;;22.51;54.57;100558.31;5028911;28;20503;-63
2022/09/11 11:27:44;;;;;;;0.10;0.00;;;;;;;22.51;53.42;100556.47;5025980;28;20032;-62
2022/09/11 11:30:18;;;;;;;0.25;0.00;;;;;;;22.65;53.34;100561.66;5026348;28;20033;-63
2022/09/11 11:33:00;;;;;;;0.20;0.00;;;;;;;22.95;53.69;100562.53;5012942;28;20040;-63
2022/09/11 11:35:34;;;;;;;0.05;0.00;;;;;;;22.81;56.31;100553.09;5027532;28;20044;-62
2022/09/11 11:38:15;;;;;;;0.10;0.00;;;;;;;22.76;54.09;100551.06;5017895;28;20037;-62
2022/09/11 11:40:52;;;;;;;0.17;0.00;;;;;;;22.80;57.29;100549.63;5030593;28;20461;-63
2022/09/11 11:43:24;;;;;;;0.20;0.00;;;;;;;22.84;57.80;100550.81;5025352;28;20051;-63